sensor_id;sensor_type;location;lat;lon;timestamp;P1;durP1;ratioP1;P2;durP2;ratioP2
76801;SDS011;66403;50.832;10.950;2023-11-21T00:02:55;1.77;;;0.77;;
76801;SDS011;66403;50.832;10.950;2023-11-21T00:07:56;1.10;;;0.75;;
76801;SDS011;66403;50.832;10.950;2023-11-21T00:12:57;2.05;;;0.90;;
76801;SDS011;66403;50.832;10.950;2023-11-21T00:17:57;2.35;;;1.05;;
76801;SDS011;66403;50.832;10.950;2023-11-21T00:22:58;2.00;;;1.10;;
76801;SDS011;66403;50.832;10.950;2023-11-21T00:27:59;4.65;;;1.35;;
76801;SDS011;66403;50.832;10.950;2023-11-21T00:33:01;2.22;;;1.63;;
76801;SDS011;66403;50.832;10.950;2023-11-21T00:38:02;1.95;;;1.58;;
76801;SDS011;66403;50.832;10.950;2023-11-21T00:43:03;1.10;;;0.80;;
76801;SDS011;66403;50.832;10.950;2023-11-21T00:48:04;2.05;;;0.70;;
76801;SDS011;66403;50.832;10.950;2023-11-21T00:53:04;0.90;;;0.88;;
76801;SDS011;66403;50.832;10.950;2023-11-21T00:58:05;1.45;;;1.13;;
76801;SDS011;66403;50.832;10.950;2023-11-21T01:03:06;1.02;;;0.70;;
76801;SDS011;66403;50.832;10.950;2023-11-21T01:08:08;1.25;;;0.70;;
76801;SDS011;66403;50.832;10.950;2023-11-21T01:13:08;1.45;;;1.20;;
76801;SDS011;66403;50.832;10.950;2023-11-21T01:18:08;1.40;;;0.73;;
76801;SDS011;66403;50.832;10.950;2023-11-21T01:23:09;1.30;;;1.02;;
76801;SDS011;66403;50.832;10.950;2023-11-21T01:28:09;1.75;;;0.98;;
76801;SDS011;66403;50.832;10.950;2023-11-21T01:33:10;1.48;;;1.15;;
76801;SDS011;66403;50.832;10.950;2023-11-21T01:38:10;1.10;;;0.80;;
76801;SDS011;66403;50.832;10.950;2023-11-21T01:43:12;1.20;;;1.00;;
76801;SDS011;66403;50.832;10.950;2023-11-21T01:48:13;2.55;;;0.75;;
76801;SDS011;66403;50.832;10.950;2023-11-21T01:53:14;1.20;;;1.10;;
76801;SDS011;66403;50.832;10.950;2023-11-21T01:58:14;1.67;;;1.13;;
76801;SDS011;66403;50.832;10.950;2023-11-21T02:03:16;1.55;;;0.88;;
76801;SDS011;66403;50.832;10.950;2023-11-21T02:08:17;1.45;;;0.82;;
76801;SDS011;66403;50.832;10.950;2023-11-21T02:13:19;2.85;;;1.00;;
76801;SDS011;66403;50.832;10.950;2023-11-21T02:18:20;3.58;;;1.05;;
76801;SDS011;66403;50.832;10.950;2023-11-21T02:23:22;1.27;;;0.80;;
76801;SDS011;66403;50.832;10.950;2023-11-21T02:28:23;3.67;;;1.58;;
76801;SDS011;66403;50.832;10.950;2023-11-21T02:33:26;3.00;;;1.05;;
76801;SDS011;66403;50.832;10.950;2023-11-21T02:38:27;3.05;;;1.08;;
76801;SDS011;66403;50.832;10.950;2023-11-21T02:43:27;1.98;;;1.23;;
76801;SDS011;66403;50.832;10.950;2023-11-21T02:48:28;2.17;;;0.98;;
76801;SDS011;66403;50.832;10.950;2023-11-21T02:53:28;2.30;;;1.00;;
76801;SDS011;66403;50.832;10.950;2023-11-21T02:58:29;4.22;;;0.95;;
76801;SDS011;66403;50.832;10.950;2023-11-21T03:03:29;1.95;;;0.73;;
76801;SDS011;66403;50.832;10.950;2023-11-21T03:08:30;1.15;;;1.00;;
76801;SDS011;66403;50.832;10.950;2023-11-21T03:13:30;1.52;;;0.90;;
76801;SDS011;66403;50.832;10.950;2023-11-21T03:18:32;3.80;;;0.95;;
76801;SDS011;66403;50.832;10.950;2023-11-21T03:23:32;1.48;;;0.95;;
76801;SDS011;66403;50.832;10.950;2023-11-21T03:28:33;6.07;;;0.80;;
76801;SDS011;66403;50.832;10.950;2023-11-21T03:33:34;2.65;;;1.00;;
76801;SDS011;66403;50.832;10.950;2023-11-21T03:38:35;0.65;;;0.60;;
76801;SDS011;66403;50.832;10.950;2023-11-21T03:43:36;0.80;;;0.70;;
76801;SDS011;66403;50.832;10.950;2023-11-21T03:48:37;0.73;;;0.70;;
76801;SDS011;66403;50.832;10.950;2023-11-21T03:53:37;0.50;;;0.45;;
76801;SDS011;66403;50.832;10.950;2023-11-21T03:58:38;1.00;;;0.70;;
76801;SDS011;66403;50.832;10.950;2023-11-21T04:03:38;1.48;;;0.70;;
76801;SDS011;66403;50.832;10.950;2023-11-21T04:08:40;0.85;;;0.55;;
76801;SDS011;66403;50.832;10.950;2023-11-21T04:13:40;1.00;;;0.70;;
76801;SDS011;66403;50.832;10.950;2023-11-21T04:18:42;1.30;;;1.00;;
76801;SDS011;66403;50.832;10.950;2023-11-21T04:23:42;1.52;;;0.70;;
76801;SDS011;66403;50.832;10.950;2023-11-21T04:28:43;1.73;;;0.70;;
76801;SDS011;66403;50.832;10.950;2023-11-21T04:33:44;0.98;;;0.77;;
76801;SDS011;66403;50.832;10.950;2023-11-21T04:38:45;1.05;;;0.85;;
76801;SDS011;66403;50.832;10.950;2023-11-21T04:43:45;3.50;;;1.13;;
76801;SDS011;66403;50.832;10.950;2023-11-21T04:48:46;3.58;;;0.93;;
76801;SDS011;66403;50.832;10.950;2023-11-21T04:53:47;1.83;;;0.90;;
76801;SDS011;66403;50.832;10.950;2023-11-21T04:58:47;2.60;;;1.48;;
76801;SDS011;66403;50.832;10.950;2023-11-21T05:03:47;1.13;;;0.98;;
76801;SDS011;66403;50.832;10.950;2023-11-21T05:08:49;1.58;;;1.17;;
76801;SDS011;66403;50.832;10.950;2023-11-21T05:13:49;2.20;;;1.30;;
76801;SDS011;66403;50.832;10.950;2023-11-21T05:18:50;2.60;;;1.25;;
76801;SDS011;66403;50.832;10.950;2023-11-21T05:23:51;2.70;;;1.10;;
76801;SDS011;66403;50.832;10.950;2023-11-21T05:28:51;3.08;;;1.30;;
76801;SDS011;66403;50.832;10.950;2023-11-21T05:33:52;2.65;;;0.90;;
76801;SDS011;66403;50.832;10.950;2023-11-21T05:38:53;1.02;;;0.95;;
76801;SDS011;66403;50.832;10.950;2023-11-21T05:43:53;1.95;;;0.73;;
76801;SDS011;66403;50.832;10.950;2023-11-21T05:48:54;1.77;;;0.90;;
76801;SDS011;66403;50.832;10.950;2023-11-21T05:53:55;0.90;;;0.60;;
76801;SDS011;66403;50.832;10.950;2023-11-21T05:58:55;1.95;;;1.13;;
76801;SDS011;66403;50.832;10.950;2023-11-21T06:03:56;1.77;;;0.70;;
76801;SDS011;66403;50.832;10.950;2023-11-21T06:08:56;1.08;;;0.80;;
76801;SDS011;66403;50.832;10.950;2023-11-21T06:13:57;2.25;;;1.30;;
76801;SDS011;66403;50.832;10.950;2023-11-21T06:18:58;1.95;;;0.82;;
76801;SDS011;66403;50.832;10.950;2023-11-21T06:23:58;2.50;;;0.98;;
76801;SDS011;66403;50.832;10.950;2023-11-21T06:28:59;2.45;;;1.23;;
76801;SDS011;66403;50.832;10.950;2023-11-21T06:33:59;4.75;;;1.55;;
76801;SDS011;66403;50.832;10.950;2023-11-21T06:39:00;4.65;;;1.98;;
76801;SDS011;66403;50.832;10.950;2023-11-21T06:44:00;4.40;;;2.30;;
76801;SDS011;66403;50.832;10.950;2023-11-21T06:49:01;2.55;;;1.30;;
76801;SDS011;66403;50.832;10.950;2023-11-21T06:54:01;3.10;;;1.73;;
76801;SDS011;66403;50.832;10.950;2023-11-21T06:59:04;4.93;;;2.22;;
76801;SDS011;66403;50.832;10.950;2023-11-21T07:04:05;5.38;;;2.08;;
76801;SDS011;66403;50.832;10.950;2023-11-21T07:09:06;2.33;;;1.75;;
76801;SDS011;66403;50.832;10.950;2023-11-21T07:14:08;5.57;;;2.13;;
76801;SDS011;66403;50.832;10.950;2023-11-21T07:19:09;3.65;;;2.20;;
76801;SDS011;66403;50.832;10.950;2023-11-21T07:24:10;6.63;;;2.65;;
76801;SDS011;66403;50.832;10.950;2023-11-21T07:29:11;3.33;;;2.03;;
76801;SDS011;66403;50.832;10.950;2023-11-21T07:34:11;6.05;;;2.90;;
76801;SDS011;66403;50.832;10.950;2023-11-21T07:39:12;4.15;;;2.25;;
76801;SDS011;66403;50.832;10.950;2023-11-21T07:44:12;7.15;;;3.40;;
76801;SDS011;66403;50.832;10.950;2023-11-21T07:49:13;3.15;;;1.85;;
76801;SDS011;66403;50.832;10.950;2023-11-21T07:54:17;6.05;;;2.55;;
76801;SDS011;66403;50.832;10.950;2023-11-21T07:59:18;6.50;;;3.00;;
76801;SDS011;66403;50.832;10.950;2023-11-21T08:04:18;4.20;;;2.33;;
76801;SDS011;66403;50.832;10.950;2023-11-21T08:09:19;3.80;;;2.65;;
76801;SDS011;66403;50.832;10.950;2023-11-21T08:14:23;3.47;;;2.22;;
76801;SDS011;66403;50.832;10.950;2023-11-21T08:19:27;4.68;;;1.85;;
76801;SDS011;66403;50.832;10.950;2023-11-21T08:24:27;5.25;;;2.33;;
76801;SDS011;66403;50.832;10.950;2023-11-21T08:29:28;4.53;;;2.13;;
76801;SDS011;66403;50.832;10.950;2023-11-21T08:34:28;3.97;;;2.35;;
76801;SDS011;66403;50.832;10.950;2023-11-21T08:39:29;3.92;;;2.53;;
76801;SDS011;66403;50.832;10.950;2023-11-21T08:44:30;4.60;;;2.30;;
76801;SDS011;66403;50.832;10.950;2023-11-21T08:49:31;7.07;;;4.07;;
76801;SDS011;66403;50.832;10.950;2023-11-21T08:54:33;7.85;;;4.65;;
76801;SDS011;66403;50.832;10.950;2023-11-21T08:59:34;7.80;;;4.00;;
76801;SDS011;66403;50.832;10.950;2023-11-21T09:04:35;6.78;;;4.13;;
76801;SDS011;66403;50.832;10.950;2023-11-21T09:09:35;5.68;;;3.75;;
76801;SDS011;66403;50.832;10.950;2023-11-21T09:14:36;5.25;;;3.15;;
76801;SDS011;66403;50.832;10.950;2023-11-21T09:19:40;5.97;;;4.18;;
76801;SDS011;66403;50.832;10.950;2023-11-21T09:24:41;5.85;;;3.67;;
76801;SDS011;66403;50.832;10.950;2023-11-21T09:29:42;6.15;;;3.70;;
76801;SDS011;66403;50.832;10.950;2023-11-21T09:34:43;9.07;;;4.68;;
76801;SDS011;66403;50.832;10.950;2023-11-21T09:39:44;6.65;;;3.72;;
76801;SDS011;66403;50.832;10.950;2023-11-21T09:45:45;9.73;;;3.25;;
76801;SDS011;66403;50.832;10.950;2023-11-21T09:50:26;7.78;;;4.05;;
76801;SDS011;66403;50.832;10.950;2023-11-21T09:55:27;6.70;;;3.50;;
76801;SDS011;66403;50.832;10.950;2023-11-21T10:00:36;7.93;;;4.47;;
76801;SDS011;66403;50.832;10.950;2023-11-21T10:05:37;17.13;;;4.63;;
76801;SDS011;66403;50.832;10.950;2023-11-21T10:10:38;7.70;;;4.80;;
76801;SDS011;66403;50.832;10.950;2023-11-21T10:15:50;19.55;;;9.55;;
76801;SDS011;66403;50.832;10.950;2023-11-21T10:20:51;7.47;;;3.83;;
76801;SDS011;66403;50.832;10.950;2023-11-21T10:25:55;8.68;;;4.13;;
76801;SDS011;66403;50.832;10.950;2023-11-21T10:30:59;6.15;;;3.65;;
76801;SDS011;66403;50.832;10.950;2023-11-21T10:36:00;7.43;;;4.40;;
76801;SDS011;66403;50.832;10.950;2023-11-21T10:41:03;5.90;;;3.72;;
76801;SDS011;66403;50.832;10.950;2023-11-21T10:46:10;6.03;;;3.85;;
76801;SDS011;66403;50.832;10.950;2023-11-21T10:51:10;16.92;;;8.05;;
76801;SDS011;66403;50.832;10.950;2023-11-21T10:56:11;12.32;;;5.90;;
76801;SDS011;66403;50.832;10.950;2023-11-21T11:01:18;9.43;;;4.30;;
76801;SDS011;66403;50.832;10.950;2023-11-21T11:06:22;9.50;;;5.53;;
76801;SDS011;66403;50.832;10.950;2023-11-21T11:11:23;8.40;;;4.50;;
76801;SDS011;66403;50.832;10.950;2023-11-21T11:16:24;8.95;;;4.53;;
76801;SDS011;66403;50.832;10.950;2023-11-21T11:32:25;8.30;;;4.78;;
76801;SDS011;66403;50.832;10.950;2023-11-21T11:37:37;8.90;;;5.70;;
76801;SDS011;66403;50.832;10.950;2023-11-21T11:42:37;9.55;;;4.60;;
76801;SDS011;66403;50.832;10.950;2023-11-21T11:47:38;11.57;;;5.75;;
76801;SDS011;66403;50.832;10.950;2023-11-21T11:52:40;9.40;;;5.55;;
76801;SDS011;66403;50.832;10.950;2023-11-21T11:57:46;10.88;;;5.50;;
76801;SDS011;66403;50.832;10.950;2023-11-21T12:02:51;9.60;;;5.70;;
76801;SDS011;66403;50.832;10.950;2023-11-21T12:07:53;10.23;;;6.43;;
76801;SDS011;66403;50.832;10.950;2023-11-21T12:12:56;12.23;;;6.93;;
76801;SDS011;66403;50.832;10.950;2023-11-21T12:17:58;11.35;;;5.75;;
76801;SDS011;66403;50.832;10.950;2023-11-21T12:22:59;12.23;;;5.93;;
76801;SDS011;66403;50.832;10.950;2023-11-21T12:28:01;12.75;;;6.43;;
76801;SDS011;66403;50.832;10.950;2023-11-21T12:33:03;10.02;;;5.50;;
76801;SDS011;66403;50.832;10.950;2023-11-21T12:38:04;9.80;;;5.28;;
76801;SDS011;66403;50.832;10.950;2023-11-21T12:43:06;9.27;;;5.07;;
76801;SDS011;66403;50.832;10.950;2023-11-21T12:48:07;13.32;;;5.55;;
76801;SDS011;66403;50.832;10.950;2023-11-21T12:53:09;11.65;;;5.35;;
76801;SDS011;66403;50.832;10.950;2023-11-21T12:58:16;8.82;;;4.32;;
76801;SDS011;66403;50.832;10.950;2023-11-21T13:03:17;8.20;;;4.30;;
76801;SDS011;66403;50.832;10.950;2023-11-21T13:08:19;8.95;;;4.25;;
76801;SDS011;66403;50.832;10.950;2023-11-21T13:13:23;6.00;;;3.53;;
76801;SDS011;66403;50.832;10.950;2023-11-21T13:18:25;5.78;;;3.90;;
76801;SDS011;66403;50.832;10.950;2023-11-21T13:23:28;16.42;;;6.05;;
76801;SDS011;66403;50.832;10.950;2023-11-21T13:28:32;6.78;;;3.60;;
76801;SDS011;66403;50.832;10.950;2023-11-21T13:33:33;5.72;;;3.35;;
76801;SDS011;66403;50.832;10.950;2023-11-21T13:38:37;6.13;;;3.03;;
76801;SDS011;66403;50.832;10.950;2023-11-21T13:43:42;4.57;;;2.45;;
76801;SDS011;66403;50.832;10.950;2023-11-21T13:48:48;7.05;;;3.80;;
76801;SDS011;66403;50.832;10.950;2023-11-21T13:53:50;7.22;;;3.20;;
76801;SDS011;66403;50.832;10.950;2023-11-21T13:58:52;5.20;;;2.22;;
76801;SDS011;66403;50.832;10.950;2023-11-21T14:03:53;3.22;;;1.90;;
76801;SDS011;66403;50.832;10.950;2023-11-21T14:09:00;3.00;;;1.70;;
76801;SDS011;66403;50.832;10.950;2023-11-21T14:14:05;4.78;;;1.55;;
76801;SDS011;66403;50.832;10.950;2023-11-21T14:19:05;3.45;;;0.95;;
76801;SDS011;66403;50.832;10.950;2023-11-21T14:24:15;1.00;;;0.70;;
76801;SDS011;66403;50.832;10.950;2023-11-21T14:29:21;1.88;;;0.93;;
76801;SDS011;66403;50.832;10.950;2023-11-21T14:34:23;1.83;;;1.02;;
76801;SDS011;66403;50.832;10.950;2023-11-21T14:39:24;4.22;;;2.58;;
76801;SDS011;66403;50.832;10.950;2023-11-21T14:44:27;4.30;;;2.65;;
76801;SDS011;66403;50.832;10.950;2023-11-21T14:49:32;5.32;;;3.00;;
76801;SDS011;66403;50.832;10.950;2023-11-21T14:54:48;6.00;;;3.42;;
76801;SDS011;66403;50.832;10.950;2023-11-21T14:59:57;8.52;;;4.88;;
76801;SDS011;66403;50.832;10.950;2023-11-21T15:04:58;12.70;;;5.30;;
76801;SDS011;66403;50.832;10.950;2023-11-21T15:10:03;14.30;;;7.93;;
76801;SDS011;66403;50.832;10.950;2023-11-21T15:15:03;10.90;;;6.45;;
76801;SDS011;66403;50.832;10.950;2023-11-21T15:20:06;16.23;;;6.93;;
76801;SDS011;66403;50.832;10.950;2023-11-21T15:25:08;11.07;;;6.75;;
76801;SDS011;66403;50.832;10.950;2023-11-21T15:30:10;10.15;;;6.30;;
76801;SDS011;66403;50.832;10.950;2023-11-21T15:35:10;12.05;;;7.03;;
76801;SDS011;66403;50.832;10.950;2023-11-21T15:40:14;11.07;;;6.38;;
76801;SDS011;66403;50.832;10.950;2023-11-21T15:45:16;14.20;;;6.65;;
76801;SDS011;66403;50.832;10.950;2023-11-21T15:50:21;11.73;;;6.30;;
76801;SDS011;66403;50.832;10.950;2023-11-21T15:55:21;10.38;;;4.88;;
76801;SDS011;66403;50.832;10.950;2023-11-21T16:00:22;13.50;;;5.82;;
76801;SDS011;66403;50.832;10.950;2023-11-21T16:05:24;11.02;;;5.35;;
76801;SDS011;66403;50.832;10.950;2023-11-21T16:10:26;12.38;;;5.75;;
76801;SDS011;66403;50.832;10.950;2023-11-21T16:15:26;11.82;;;5.80;;
76801;SDS011;66403;50.832;10.950;2023-11-21T16:20:27;10.98;;;4.93;;
76801;SDS011;66403;50.832;10.950;2023-11-21T16:25:27;10.50;;;5.72;;
76801;SDS011;66403;50.832;10.950;2023-11-21T16:30:28;10.13;;;5.40;;
76801;SDS011;66403;50.832;10.950;2023-11-21T16:35:32;10.32;;;5.43;;
76801;SDS011;66403;50.832;10.950;2023-11-21T16:40:32;11.45;;;5.95;;
76801;SDS011;66403;50.832;10.950;2023-11-21T16:45:33;10.38;;;5.03;;
76801;SDS011;66403;50.832;10.950;2023-11-21T16:50:33;13.10;;;6.03;;
76801;SDS011;66403;50.832;10.950;2023-11-21T16:55:33;9.10;;;5.22;;
76801;SDS011;66403;50.832;10.950;2023-11-21T17:00:34;11.43;;;5.60;;
76801;SDS011;66403;50.832;10.950;2023-11-21T17:05:39;12.25;;;6.88;;
76801;SDS011;66403;50.832;10.950;2023-11-21T17:10:42;12.35;;;5.25;;
76801;SDS011;66403;50.832;10.950;2023-11-21T17:15:43;14.32;;;6.88;;
76801;SDS011;66403;50.832;10.950;2023-11-21T17:20:45;9.70;;;5.97;;
76801;SDS011;66403;50.832;10.950;2023-11-21T17:25:47;11.88;;;6.18;;
76801;SDS011;66403;50.832;10.950;2023-11-21T17:30:48;10.50;;;5.43;;
76801;SDS011;66403;50.832;10.950;2023-11-21T17:35:50;8.45;;;4.97;;
76801;SDS011;66403;50.832;10.950;2023-11-21T17:40:51;7.15;;;4.75;;
76801;SDS011;66403;50.832;10.950;2023-11-21T17:45:52;7.53;;;4.78;;
76801;SDS011;66403;50.832;10.950;2023-11-21T17:50:52;7.55;;;3.88;;
76801;SDS011;66403;50.832;10.950;2023-11-21T17:55:53;8.13;;;4.25;;
76801;SDS011;66403;50.832;10.950;2023-11-21T18:00:53;4.65;;;2.75;;
76801;SDS011;66403;50.832;10.950;2023-11-21T18:05:54;5.22;;;3.40;;
76801;SDS011;66403;50.832;10.950;2023-11-21T18:10:55;6.40;;;4.05;;
76801;SDS011;66403;50.832;10.950;2023-11-21T18:15:58;5.78;;;3.28;;
76801;SDS011;66403;50.832;10.950;2023-11-21T18:21:00;5.53;;;3.08;;
76801;SDS011;66403;50.832;10.950;2023-11-21T18:26:02;5.28;;;2.83;;
76801;SDS011;66403;50.832;10.950;2023-11-21T18:31:05;8.13;;;3.30;;
76801;SDS011;66403;50.832;10.950;2023-11-21T18:36:06;6.45;;;3.25;;
76801;SDS011;66403;50.832;10.950;2023-11-21T18:41:07;4.35;;;3.03;;
76801;SDS011;66403;50.832;10.950;2023-11-21T18:46:08;4.75;;;3.28;;
76801;SDS011;66403;50.832;10.950;2023-11-21T18:51:08;3.78;;;3.03;;
76801;SDS011;66403;50.832;10.950;2023-11-21T18:56:17;4.18;;;2.70;;
76801;SDS011;66403;50.832;10.950;2023-11-21T19:01:28;6.53;;;3.10;;
76801;SDS011;66403;50.832;10.950;2023-11-21T19:06:30;6.22;;;3.40;;
76801;SDS011;66403;50.832;10.950;2023-11-21T19:11:32;6.18;;;3.50;;
76801;SDS011;66403;50.832;10.950;2023-11-21T19:16:34;7.30;;;4.18;;
76801;SDS011;66403;50.832;10.950;2023-11-21T19:21:34;4.68;;;2.67;;
76801;SDS011;66403;50.832;10.950;2023-11-21T19:26:37;4.78;;;2.70;;
76801;SDS011;66403;50.832;10.950;2023-11-21T19:31:38;7.07;;;3.78;;
76801;SDS011;66403;50.832;10.950;2023-11-21T19:36:40;7.30;;;3.30;;
76801;SDS011;66403;50.832;10.950;2023-11-21T19:41:41;5.50;;;3.10;;
76801;SDS011;66403;50.832;10.950;2023-11-21T19:46:42;5.53;;;3.55;;
76801;SDS011;66403;50.832;10.950;2023-11-21T19:51:43;6.35;;;3.10;;
76801;SDS011;66403;50.832;10.950;2023-11-21T19:56:43;6.72;;;3.05;;
76801;SDS011;66403;50.832;10.950;2023-11-21T20:01:43;6.80;;;3.30;;
76801;SDS011;66403;50.832;10.950;2023-11-21T20:06:45;6.90;;;3.97;;
76801;SDS011;66403;50.832;10.950;2023-11-21T20:11:45;7.15;;;3.45;;
76801;SDS011;66403;50.832;10.950;2023-11-21T20:16:47;6.25;;;3.80;;
76801;SDS011;66403;50.832;10.950;2023-11-21T20:21:49;6.00;;;3.22;;
76801;SDS011;66403;50.832;10.950;2023-11-21T20:26:50;6.28;;;3.03;;
76801;SDS011;66403;50.832;10.950;2023-11-21T20:31:51;5.80;;;3.53;;
76801;SDS011;66403;50.832;10.950;2023-11-21T20:36:52;4.60;;;2.47;;
76801;SDS011;66403;50.832;10.950;2023-11-21T20:41:55;5.13;;;2.90;;
76801;SDS011;66403;50.832;10.950;2023-11-21T20:46:55;5.90;;;3.35;;
76801;SDS011;66403;50.832;10.950;2023-11-21T20:51:56;7.00;;;4.05;;
76801;SDS011;66403;50.832;10.950;2023-11-21T20:56:57;6.25;;;2.90;;
76801;SDS011;66403;50.832;10.950;2023-11-21T21:01:57;4.53;;;2.47;;
76801;SDS011;66403;50.832;10.950;2023-11-21T21:06:58;6.18;;;2.83;;
76801;SDS011;66403;50.832;10.950;2023-11-21T21:11:59;9.48;;;5.05;;
76801;SDS011;66403;50.832;10.950;2023-11-21T21:17:00;6.70;;;3.22;;
76801;SDS011;66403;50.832;10.950;2023-11-21T21:22:01;4.22;;;2.90;;
76801;SDS011;66403;50.832;10.950;2023-11-21T21:27:01;5.72;;;3.05;;
76801;SDS011;66403;50.832;10.950;2023-11-21T21:32:02;4.45;;;2.55;;
76801;SDS011;66403;50.832;10.950;2023-11-21T21:37:04;4.88;;;2.92;;
76801;SDS011;66403;50.832;10.950;2023-11-21T21:42:06;4.72;;;2.95;;
76801;SDS011;66403;50.832;10.950;2023-11-21T21:47:07;5.95;;;3.25;;
76801;SDS011;66403;50.832;10.950;2023-11-21T21:52:07;5.10;;;2.70;;
76801;SDS011;66403;50.832;10.950;2023-11-21T21:57:09;4.90;;;2.50;;
76801;SDS011;66403;50.832;10.950;2023-11-21T22:02:09;4.80;;;2.72;;
76801;SDS011;66403;50.832;10.950;2023-11-21T22:07:09;3.03;;;2.50;;
76801;SDS011;66403;50.832;10.950;2023-11-21T22:12:11;5.00;;;3.00;;
76801;SDS011;66403;50.832;10.950;2023-11-21T22:17:11;4.95;;;3.17;;
76801;SDS011;66403;50.832;10.950;2023-11-21T22:22:15;4.20;;;2.15;;
76801;SDS011;66403;50.832;10.950;2023-11-21T22:27:15;3.13;;;2.15;;
76801;SDS011;66403;50.832;10.950;2023-11-21T22:32:18;4.10;;;2.35;;
76801;SDS011;66403;50.832;10.950;2023-11-21T22:37:19;4.22;;;2.08;;
76801;SDS011;66403;50.832;10.950;2023-11-21T22:42:20;2.05;;;1.58;;
76801;SDS011;66403;50.832;10.950;2023-11-21T22:47:20;3.08;;;1.88;;
76801;SDS011;66403;50.832;10.950;2023-11-21T22:52:22;4.43;;;2.47;;
76801;SDS011;66403;50.832;10.950;2023-11-21T22:57:24;4.00;;;1.92;;
76801;SDS011;66403;50.832;10.950;2023-11-21T23:02:24;4.22;;;1.83;;
76801;SDS011;66403;50.832;10.950;2023-11-21T23:07:25;3.50;;;1.75;;
76801;SDS011;66403;50.832;10.950;2023-11-21T23:12:25;4.03;;;2.10;;
76801;SDS011;66403;50.832;10.950;2023-11-21T23:17:27;3.88;;;1.75;;
76801;SDS011;66403;50.832;10.950;2023-11-21T23:22:29;5.30;;;1.92;;
76801;SDS011;66403;50.832;10.950;2023-11-21T23:27:29;3.90;;;2.75;;
76801;SDS011;66403;50.832;10.950;2023-11-21T23:32:30;4.75;;;2.35;;
76801;SDS011;66403;50.832;10.950;2023-11-21T23:37:30;4.72;;;2.30;;
76801;SDS011;66403;50.832;10.950;2023-11-21T23:42:30;3.50;;;2.13;;
76801;SDS011;66403;50.832;10.950;2023-11-21T23:47:31;4.25;;;2.10;;
76801;SDS011;66403;50.832;10.950;2023-11-21T23:52:32;5.35;;;2.85;;
76801;SDS011;66403;50.832;10.950;2023-11-21T23:57:32;4.35;;;2.40;;
